sensor_id;sensor_type;location;lat;lon;timestamp;P1;durP1;ratioP1;P2;durP2;ratioP2
21334;SDS011;69435;52.670;13.544;2023-10-09T00:02:28;1.30;;;1.20;;
21334;SDS011;69435;52.670;13.544;2023-10-09T00:05:14;1.10;;;1.10;;
21334;SDS011;69435;52.670;13.544;2023-10-09T00:08:13;1.47;;;1.20;;
21334;SDS011;69435;52.670;13.544;2023-10-09T00:11:07;2.70;;;1.10;;
21334;SDS011;69435;52.670;13.544;2023-10-09T00:14:02;1.10;;;1.10;;
21334;SDS011;69435;52.670;13.544;2023-10-09T00:16:51;1.50;;;1.40;;
21334;SDS011;69435;52.670;13.544;2023-10-09T00:19:46;1.73;;;1.10;;
21334;SDS011;69435;52.670;13.544;2023-10-09T00:22:36;1.50;;;1.40;;
21334;SDS011;69435;52.670;13.544;2023-10-09T00:25:28;1.70;;;1.60;;
21334;SDS011;69435;52.670;13.544;2023-10-09T00:28:15;1.63;;;1.40;;
21334;SDS011;69435;52.670;13.544;2023-10-09T00:31:04;1.43;;;1.33;;
21334;SDS011;69435;52.670;13.544;2023-10-09T00:33:53;1.43;;;1.33;;
21334;SDS011;69435;52.670;13.544;2023-10-09T00:36:40;1.50;;;1.40;;
21334;SDS011;69435;52.670;13.544;2023-10-09T00:39:35;5.20;;;1.60;;
21334;SDS011;69435;52.670;13.544;2023-10-09T00:42:22;1.63;;;1.53;;
21334;SDS011;69435;52.670;13.544;2023-10-09T00:45:18;3.73;;;1.50;;
21334;SDS011;69435;52.670;13.544;2023-10-09T00:48:10;1.70;;;1.60;;
21334;SDS011;69435;52.670;13.544;2023-10-09T00:51:00;1.80;;;1.70;;
21334;SDS011;69435;52.670;13.544;2023-10-09T00:53:47;2.03;;;1.80;;
21334;SDS011;69435;52.670;13.544;2023-10-09T00:56:38;1.60;;;1.50;;
21334;SDS011;69435;52.670;13.544;2023-10-09T00:59:28;1.57;;;1.47;;
21334;SDS011;69435;52.670;13.544;2023-10-09T01:02:16;4.00;;;1.90;;
21334;SDS011;69435;52.670;13.544;2023-10-09T01:05:05;1.70;;;1.50;;
21334;SDS011;69435;52.670;13.544;2023-10-09T01:07:57;2.03;;;1.83;;
21334;SDS011;69435;52.670;13.544;2023-10-09T01:10:44;1.70;;;1.60;;
21334;SDS011;69435;52.670;13.544;2023-10-09T01:13:37;1.97;;;1.70;;
21334;SDS011;69435;52.670;13.544;2023-10-09T01:16:38;1.97;;;1.70;;
21334;SDS011;69435;52.670;13.544;2023-10-09T01:19:28;1.73;;;1.63;;
21334;SDS011;69435;52.670;13.544;2023-10-09T01:22:16;2.20;;;1.80;;
21334;SDS011;69435;52.670;13.544;2023-10-09T01:25:06;1.73;;;1.60;;
21334;SDS011;69435;52.670;13.544;2023-10-09T01:27:53;1.70;;;1.60;;
21334;SDS011;69435;52.670;13.544;2023-10-09T01:30:39;3.10;;;1.77;;
21334;SDS011;69435;52.670;13.544;2023-10-09T01:33:27;1.97;;;1.87;;
21334;SDS011;69435;52.670;13.544;2023-10-09T01:36:13;1.80;;;1.70;;
21334;SDS011;69435;52.670;13.544;2023-10-09T01:39:00;1.93;;;1.73;;
21334;SDS011;69435;52.670;13.544;2023-10-09T01:42:06;1.77;;;1.67;;
21334;SDS011;69435;52.670;13.544;2023-10-09T01:44:53;2.47;;;1.60;;
21334;SDS011;69435;52.670;13.544;2023-10-09T01:47:39;2.40;;;1.73;;
21334;SDS011;69435;52.670;13.544;2023-10-09T01:50:25;3.63;;;2.00;;
21334;SDS011;69435;52.670;13.544;2023-10-09T01:53:16;2.67;;;2.03;;
21334;SDS011;69435;52.670;13.544;2023-10-09T01:56:11;2.17;;;1.80;;
21334;SDS011;69435;52.670;13.544;2023-10-09T01:59:03;2.53;;;2.10;;
21334;SDS011;69435;52.670;13.544;2023-10-09T02:01:51;1.77;;;1.67;;
21334;SDS011;69435;52.670;13.544;2023-10-09T02:04:40;6.80;;;1.97;;
21334;SDS011;69435;52.670;13.544;2023-10-09T02:07:26;2.47;;;2.13;;
21334;SDS011;69435;52.670;13.544;2023-10-09T02:10:25;1.83;;;1.57;;
21334;SDS011;69435;52.670;13.544;2023-10-09T02:13:16;1.90;;;1.77;;
21334;SDS011;69435;52.670;13.544;2023-10-09T02:16:02;1.87;;;1.77;;
21334;SDS011;69435;52.670;13.544;2023-10-09T02:19:02;2.83;;;2.07;;
21334;SDS011;69435;52.670;13.544;2023-10-09T02:21:53;2.40;;;2.20;;
21334;SDS011;69435;52.670;13.544;2023-10-09T02:24:42;2.10;;;1.90;;
21334;SDS011;69435;52.670;13.544;2023-10-09T02:27:33;3.37;;;2.37;;
21334;SDS011;69435;52.670;13.544;2023-10-09T02:30:29;1.90;;;1.80;;
21334;SDS011;69435;52.670;13.544;2023-10-09T02:33:19;3.13;;;1.80;;
21334;SDS011;69435;52.670;13.544;2023-10-09T02:36:13;2.13;;;1.70;;
21334;SDS011;69435;52.670;13.544;2023-10-09T02:38:59;2.17;;;1.97;;
21334;SDS011;69435;52.670;13.544;2023-10-09T02:41:45;2.13;;;1.93;;
21334;SDS011;69435;52.670;13.544;2023-10-09T02:44:34;5.57;;;1.97;;
21334;SDS011;69435;52.670;13.544;2023-10-09T02:47:25;3.57;;;1.90;;
21334;SDS011;69435;52.670;13.544;2023-10-09T02:50:16;1.93;;;1.73;;
21334;SDS011;69435;52.670;13.544;2023-10-09T02:53:06;5.40;;;2.00;;
21334;SDS011;69435;52.670;13.544;2023-10-09T02:55:55;1.90;;;1.80;;
21334;SDS011;69435;52.670;13.544;2023-10-09T02:59:07;1.80;;;1.70;;
21334;SDS011;69435;52.670;13.544;2023-10-09T03:01:54;2.40;;;2.20;;
21334;SDS011;69435;52.670;13.544;2023-10-09T03:04:40;3.03;;;1.87;;
21334;SDS011;69435;52.670;13.544;2023-10-09T03:07:26;4.53;;;2.10;;
21334;SDS011;69435;52.670;13.544;2023-10-09T03:10:12;2.73;;;2.30;;
21334;SDS011;69435;52.670;13.544;2023-10-09T03:12:58;3.43;;;2.10;;
21334;SDS011;69435;52.670;13.544;2023-10-09T03:15:48;2.63;;;2.43;;
21334;SDS011;69435;52.670;13.544;2023-10-09T03:18:37;2.03;;;1.90;;
21334;SDS011;69435;52.670;13.544;2023-10-09T03:21:23;2.80;;;2.00;;
21334;SDS011;69435;52.670;13.544;2023-10-09T03:24:09;4.87;;;2.63;;
21334;SDS011;69435;52.670;13.544;2023-10-09T03:26:56;2.43;;;2.20;;
21334;SDS011;69435;52.670;13.544;2023-10-09T03:29:43;2.93;;;1.93;;
21334;SDS011;69435;52.670;13.544;2023-10-09T03:32:35;2.30;;;2.10;;
21334;SDS011;69435;52.670;13.544;2023-10-09T03:35:21;2.63;;;2.40;;
21334;SDS011;69435;52.670;13.544;2023-10-09T03:38:12;3.20;;;2.30;;
21334;SDS011;69435;52.670;13.544;2023-10-09T03:41:02;2.63;;;2.43;;
21334;SDS011;69435;52.670;13.544;2023-10-09T03:43:52;2.63;;;2.43;;
21334;SDS011;69435;52.670;13.544;2023-10-09T03:46:39;2.90;;;2.70;;
21334;SDS011;69435;52.670;13.544;2023-10-09T03:49:29;2.57;;;2.37;;
21334;SDS011;69435;52.670;13.544;2023-10-09T03:52:17;3.70;;;2.60;;
21334;SDS011;69435;52.670;13.544;2023-10-09T03:55:04;2.87;;;2.67;;
21334;SDS011;69435;52.670;13.544;2023-10-09T03:57:56;3.93;;;2.47;;
21334;SDS011;69435;52.670;13.544;2023-10-09T04:00:44;2.73;;;2.53;;
21334;SDS011;69435;52.670;13.544;2023-10-09T04:03:30;3.00;;;2.73;;
21334;SDS011;69435;52.670;13.544;2023-10-09T04:06:16;3.60;;;2.40;;
21334;SDS011;69435;52.670;13.544;2023-10-09T04:09:03;2.60;;;2.40;;
21334;SDS011;69435;52.670;13.544;2023-10-09T04:12:03;2.70;;;2.50;;
21334;SDS011;69435;52.670;13.544;2023-10-09T04:14:55;7.27;;;2.47;;
21334;SDS011;69435;52.670;13.544;2023-10-09T04:17:48;6.70;;;3.00;;
21334;SDS011;69435;52.670;13.544;2023-10-09T04:20:37;2.70;;;2.50;;
21334;SDS011;69435;52.670;13.544;2023-10-09T04:23:41;3.13;;;2.93;;
21334;SDS011;69435;52.670;13.544;2023-10-09T04:26:54;5.50;;;2.93;;
21334;SDS011;69435;52.670;13.544;2023-10-09T04:29:43;2.87;;;2.50;;
21334;SDS011;69435;52.670;13.544;2023-10-09T04:32:32;4.13;;;3.20;;
21334;SDS011;69435;52.670;13.544;2023-10-09T04:35:19;7.00;;;3.30;;
21334;SDS011;69435;52.670;13.544;2023-10-09T04:38:09;4.33;;;3.17;;
21334;SDS011;69435;52.670;13.544;2023-10-09T04:40:55;7.40;;;3.17;;
21334;SDS011;69435;52.670;13.544;2023-10-09T04:43:44;4.07;;;3.13;;
21334;SDS011;69435;52.670;13.544;2023-10-09T04:46:30;3.70;;;3.40;;
21334;SDS011;69435;52.670;13.544;2023-10-09T04:49:29;3.23;;;3.03;;
21334;SDS011;69435;52.670;13.544;2023-10-09T04:52:15;4.17;;;3.60;;
21334;SDS011;69435;52.670;13.544;2023-10-09T04:55:25;3.93;;;3.57;;
21334;SDS011;69435;52.670;13.544;2023-10-09T04:58:11;3.60;;;3.30;;
21334;SDS011;69435;52.670;13.544;2023-10-09T05:01:09;4.40;;;3.93;;
21334;SDS011;69435;52.670;13.544;2023-10-09T05:03:59;3.80;;;3.50;;
21334;SDS011;69435;52.670;13.544;2023-10-09T05:06:49;5.10;;;4.03;;
21334;SDS011;69435;52.670;13.544;2023-10-09T05:09:40;3.93;;;3.60;;
21334;SDS011;69435;52.670;13.544;2023-10-09T05:12:41;5.90;;;4.23;;
21334;SDS011;69435;52.670;13.544;2023-10-09T05:15:32;3.97;;;3.60;;
21334;SDS011;69435;52.670;13.544;2023-10-09T05:18:19;6.77;;;4.10;;
21334;SDS011;69435;52.670;13.544;2023-10-09T05:21:12;8.53;;;3.90;;
21334;SDS011;69435;52.670;13.544;2023-10-09T05:24:02;4.93;;;4.10;;
21334;SDS011;69435;52.670;13.544;2023-10-09T05:26:59;5.03;;;4.03;;
21334;SDS011;69435;52.670;13.544;2023-10-09T05:30:03;7.00;;;4.67;;
21334;SDS011;69435;52.670;13.544;2023-10-09T05:33:08;5.43;;;4.33;;
21334;SDS011;69435;52.670;13.544;2023-10-09T05:36:17;6.63;;;4.70;;
21334;SDS011;69435;52.670;13.544;2023-10-09T05:39:05;7.10;;;4.23;;
21334;SDS011;69435;52.670;13.544;2023-10-09T05:42:07;5.70;;;4.60;;
21334;SDS011;69435;52.670;13.544;2023-10-09T05:45:05;6.20;;;4.73;;
21334;SDS011;69435;52.670;13.544;2023-10-09T05:48:02;5.73;;;5.23;;
21334;SDS011;69435;52.670;13.544;2023-10-09T05:50:48;5.83;;;5.30;;
21334;SDS011;69435;52.670;13.544;2023-10-09T05:53:57;6.70;;;5.77;;
21334;SDS011;69435;52.670;13.544;2023-10-09T05:57:09;5.90;;;5.20;;
21334;SDS011;69435;52.670;13.544;2023-10-09T06:00:13;5.67;;;5.03;;
21334;SDS011;69435;52.670;13.544;2023-10-09T06:03:19;10.33;;;5.43;;
21334;SDS011;69435;52.670;13.544;2023-10-09T06:06:05;8.43;;;5.60;;
21334;SDS011;69435;52.670;13.544;2023-10-09T06:08:51;5.93;;;5.33;;
21334;SDS011;69435;52.670;13.544;2023-10-09T06:11:56;7.17;;;5.60;;
21334;SDS011;69435;52.670;13.544;2023-10-09T06:15:02;6.67;;;5.80;;
21334;SDS011;69435;52.670;13.544;2023-10-09T06:18:24;5.90;;;5.30;;
21334;SDS011;69435;52.670;13.544;2023-10-09T06:21:18;9.10;;;5.33;;
21334;SDS011;69435;52.670;13.544;2023-10-09T06:24:27;7.73;;;5.67;;
21334;SDS011;69435;52.670;13.544;2023-10-09T06:27:18;7.50;;;5.67;;
21334;SDS011;69435;52.670;13.544;2023-10-09T06:30:31;6.63;;;6.03;;
21334;SDS011;69435;52.670;13.544;2023-10-09T06:33:20;11.60;;;5.77;;
21334;SDS011;69435;52.670;13.544;2023-10-09T06:36:14;6.80;;;5.83;;
21334;SDS011;69435;52.670;13.544;2023-10-09T06:39:03;7.80;;;6.67;;
21334;SDS011;69435;52.670;13.544;2023-10-09T06:42:07;8.20;;;6.60;;
21334;SDS011;69435;52.670;13.544;2023-10-09T06:45:16;6.50;;;5.90;;
21334;SDS011;69435;52.670;13.544;2023-10-09T06:48:02;7.17;;;6.50;;
21334;SDS011;69435;52.670;13.544;2023-10-09T06:51:08;6.70;;;6.00;;
21334;SDS011;69435;52.670;13.544;2023-10-09T06:54:11;6.93;;;6.23;;
21334;SDS011;69435;52.670;13.544;2023-10-09T06:57:00;5.73;;;5.23;;
21334;SDS011;69435;52.670;13.544;2023-10-09T06:59:58;5.10;;;4.70;;
21334;SDS011;69435;52.670;13.544;2023-10-09T07:03:03;6.40;;;4.57;;
21334;SDS011;69435;52.670;13.544;2023-10-09T07:06:09;10.77;;;5.20;;
21334;SDS011;69435;52.670;13.544;2023-10-09T07:09:08;8.00;;;4.47;;
21334;SDS011;69435;52.670;13.544;2023-10-09T07:11:54;5.93;;;5.27;;
21334;SDS011;69435;52.670;13.544;2023-10-09T07:14:45;5.30;;;4.90;;
21334;SDS011;69435;52.670;13.544;2023-10-09T07:17:31;6.47;;;5.20;;
21334;SDS011;69435;52.670;13.544;2023-10-09T07:20:20;5.50;;;4.90;;
21334;SDS011;69435;52.670;13.544;2023-10-09T07:23:25;5.33;;;4.80;;
21334;SDS011;69435;52.670;13.544;2023-10-09T07:26:17;4.47;;;4.10;;
21334;SDS011;69435;52.670;13.544;2023-10-09T07:29:03;4.77;;;4.37;;
21334;SDS011;69435;52.670;13.544;2023-10-09T07:32:07;4.47;;;4.07;;
21334;SDS011;69435;52.670;13.544;2023-10-09T07:34:57;4.53;;;4.23;;
21334;SDS011;69435;52.670;13.544;2023-10-09T07:37:44;6.40;;;4.13;;
21334;SDS011;69435;52.670;13.544;2023-10-09T07:40:36;4.50;;;4.20;;
21334;SDS011;69435;52.670;13.544;2023-10-09T07:43:45;4.20;;;3.77;;
21334;SDS011;69435;52.670;13.544;2023-10-09T07:46:31;6.47;;;4.10;;
21334;SDS011;69435;52.670;13.544;2023-10-09T07:49:37;3.93;;;3.63;;
21334;SDS011;69435;52.670;13.544;2023-10-09T07:52:23;3.60;;;3.30;;
21334;SDS011;69435;52.670;13.544;2023-10-09T07:55:11;3.80;;;3.50;;
21334;SDS011;69435;52.670;13.544;2023-10-09T07:58:11;3.93;;;3.63;;
21334;SDS011;69435;52.670;13.544;2023-10-09T08:00:57;5.37;;;4.13;;
21334;SDS011;69435;52.670;13.544;2023-10-09T08:04:06;6.57;;;4.57;;
21334;SDS011;69435;52.670;13.544;2023-10-09T08:07:08;5.60;;;4.47;;
21334;SDS011;69435;52.670;13.544;2023-10-09T08:10:05;5.93;;;4.27;;
21334;SDS011;69435;52.670;13.544;2023-10-09T08:13:04;4.87;;;4.20;;
21334;SDS011;69435;52.670;13.544;2023-10-09T08:16:25;4.70;;;4.30;;
21334;SDS011;69435;52.670;13.544;2023-10-09T08:19:21;4.30;;;3.87;;
21334;SDS011;69435;52.670;13.544;2023-10-09T08:22:28;4.13;;;3.83;;
21334;SDS011;69435;52.670;13.544;2023-10-09T08:25:16;4.00;;;3.70;;
21334;SDS011;69435;52.670;13.544;2023-10-09T08:28:18;3.80;;;3.23;;
21334;SDS011;69435;52.670;13.544;2023-10-09T08:31:22;3.70;;;3.40;;
21334;SDS011;69435;52.670;13.544;2023-10-09T08:34:30;2.90;;;2.70;;
21334;SDS011;69435;52.670;13.544;2023-10-09T08:37:33;3.17;;;2.47;;
21334;SDS011;69435;52.670;13.544;2023-10-09T08:40:19;2.80;;;2.53;;
21334;SDS011;69435;52.670;13.544;2023-10-09T08:43:10;6.03;;;3.50;;
21334;SDS011;69435;52.670;13.544;2023-10-09T08:46:03;3.40;;;3.10;;
21334;SDS011;69435;52.670;13.544;2023-10-09T08:48:51;4.00;;;3.47;;
21334;SDS011;69435;52.670;13.544;2023-10-09T08:51:37;3.80;;;3.50;;
21334;SDS011;69435;52.670;13.544;2023-10-09T08:54:23;3.70;;;3.40;;
21334;SDS011;69435;52.670;13.544;2023-10-09T08:57:09;4.23;;;3.83;;
21334;SDS011;69435;52.670;13.544;2023-10-09T08:59:55;4.87;;;3.93;;
21334;SDS011;69435;52.670;13.544;2023-10-09T09:02:42;4.07;;;3.67;;
21334;SDS011;69435;52.670;13.544;2023-10-09T09:05:29;3.97;;;3.67;;
21334;SDS011;69435;52.670;13.544;2023-10-09T09:08:22;4.00;;;3.60;;
21334;SDS011;69435;52.670;13.544;2023-10-09T09:11:16;4.63;;;4.03;;
21334;SDS011;69435;52.670;13.544;2023-10-09T09:14:03;4.73;;;4.33;;
21334;SDS011;69435;52.670;13.544;2023-10-09T09:16:51;4.27;;;3.97;;
21334;SDS011;69435;52.670;13.544;2023-10-09T09:19:37;5.07;;;4.67;;
21334;SDS011;69435;52.670;13.544;2023-10-09T09:22:23;5.23;;;4.77;;
21334;SDS011;69435;52.670;13.544;2023-10-09T09:25:11;5.60;;;5.13;;
21334;SDS011;69435;52.670;13.544;2023-10-09T09:27:57;5.77;;;5.10;;
21334;SDS011;69435;52.670;13.544;2023-10-09T09:30:55;4.40;;;4.10;;
21334;SDS011;69435;52.670;13.544;2023-10-09T09:33:58;4.87;;;4.57;;
21334;SDS011;69435;52.670;13.544;2023-10-09T09:36:49;6.83;;;5.20;;
21334;SDS011;69435;52.670;13.544;2023-10-09T09:39:39;11.37;;;5.60;;
21334;SDS011;69435;52.670;13.544;2023-10-09T09:42:28;5.77;;;4.67;;
21334;SDS011;69435;52.670;13.544;2023-10-09T09:45:17;7.07;;;6.10;;
21334;SDS011;69435;52.670;13.544;2023-10-09T09:48:08;6.60;;;5.90;;
21334;SDS011;69435;52.670;13.544;2023-10-09T09:50:55;5.83;;;5.33;;
21334;SDS011;69435;52.670;13.544;2023-10-09T09:53:42;6.17;;;5.57;;
21334;SDS011;69435;52.670;13.544;2023-10-09T09:56:33;6.37;;;5.80;;
21334;SDS011;69435;52.670;13.544;2023-10-09T09:59:25;5.80;;;5.20;;
21334;SDS011;69435;52.670;13.544;2023-10-09T10:02:14;6.10;;;5.10;;
21334;SDS011;69435;52.670;13.544;2023-10-09T10:05:24;6.37;;;5.77;;
21334;SDS011;69435;52.670;13.544;2023-10-09T10:08:16;6.93;;;5.87;;
21334;SDS011;69435;52.670;13.544;2023-10-09T10:11:05;7.83;;;5.67;;
21334;SDS011;69435;52.670;13.544;2023-10-09T10:13:59;6.67;;;5.60;;
21334;SDS011;69435;52.670;13.544;2023-10-09T10:17:06;6.17;;;5.57;;
21334;SDS011;69435;52.670;13.544;2023-10-09T10:20:06;7.07;;;5.63;;
21334;SDS011;69435;52.670;13.544;2023-10-09T10:23:19;6.10;;;5.50;;
21334;SDS011;69435;52.670;13.544;2023-10-09T10:26:20;6.17;;;5.60;;
21334;SDS011;69435;52.670;13.544;2023-10-09T10:29:16;5.17;;;4.73;;
21334;SDS011;69435;52.670;13.544;2023-10-09T10:32:12;5.80;;;5.20;;
21334;SDS011;69435;52.670;13.544;2023-10-09T10:34:58;5.23;;;4.83;;
21334;SDS011;69435;52.670;13.544;2023-10-09T10:37:51;5.20;;;4.80;;
21334;SDS011;69435;52.670;13.544;2023-10-09T10:40:45;5.00;;;4.60;;
21334;SDS011;69435;52.670;13.544;2023-10-09T10:43:31;5.03;;;4.63;;
21334;SDS011;69435;52.670;13.544;2023-10-09T10:46:32;5.50;;;4.73;;
21334;SDS011;69435;52.670;13.544;2023-10-09T10:49:22;5.30;;;4.57;;
21334;SDS011;69435;52.670;13.544;2023-10-09T10:52:19;5.23;;;4.73;;
21334;SDS011;69435;52.670;13.544;2023-10-09T10:55:08;4.73;;;4.37;;
21334;SDS011;69435;52.670;13.544;2023-10-09T10:58:19;5.43;;;4.50;;
21334;SDS011;69435;52.670;13.544;2023-10-09T11:01:20;4.83;;;4.37;;
21334;SDS011;69435;52.670;13.544;2023-10-09T11:04:11;6.07;;;4.23;;
21334;SDS011;69435;52.670;13.544;2023-10-09T11:06:58;5.30;;;4.80;;
21334;SDS011;69435;52.670;13.544;2023-10-09T11:10:10;6.27;;;5.47;;
21334;SDS011;69435;52.670;13.544;2023-10-09T11:13:01;5.83;;;5.33;;
21334;SDS011;69435;52.670;13.544;2023-10-09T11:16:07;6.10;;;5.60;;
21334;SDS011;69435;52.670;13.544;2023-10-09T11:19:00;6.83;;;5.60;;
21334;SDS011;69435;52.670;13.544;2023-10-09T11:21:58;6.13;;;5.57;;
21334;SDS011;69435;52.670;13.544;2023-10-09T11:24:52;7.20;;;6.50;;
21334;SDS011;69435;52.670;13.544;2023-10-09T11:27:56;7.07;;;6.50;;
21334;SDS011;69435;52.670;13.544;2023-10-09T11:30:41;7.53;;;6.57;;
21334;SDS011;69435;52.670;13.544;2023-10-09T11:33:42;8.80;;;7.53;;
21334;SDS011;69435;52.670;13.544;2023-10-09T11:36:34;9.30;;;8.40;;
21334;SDS011;69435;52.670;13.544;2023-10-09T11:39:23;8.47;;;7.80;;
21334;SDS011;69435;52.670;13.544;2023-10-09T11:42:17;11.63;;;8.63;;
21334;SDS011;69435;52.670;13.544;2023-10-09T11:45:25;8.37;;;7.63;;
21334;SDS011;69435;52.670;13.544;2023-10-09T11:48:16;9.37;;;8.47;;
21334;SDS011;69435;52.670;13.544;2023-10-09T11:51:26;8.60;;;7.80;;
21334;SDS011;69435;52.670;13.544;2023-10-09T11:54:28;8.50;;;7.70;;
21334;SDS011;69435;52.670;13.544;2023-10-09T11:57:16;8.83;;;7.20;;
21334;SDS011;69435;52.670;13.544;2023-10-09T12:00:03;8.30;;;7.60;;
21334;SDS011;69435;52.670;13.544;2023-10-09T12:03:08;7.70;;;7.10;;
21334;SDS011;69435;52.670;13.544;2023-10-09T12:05:58;7.27;;;6.67;;
21334;SDS011;69435;52.670;13.544;2023-10-09T12:08:57;7.83;;;6.80;;
21334;SDS011;69435;52.670;13.544;2023-10-09T12:11:43;8.37;;;6.73;;
21334;SDS011;69435;52.670;13.544;2023-10-09T12:14:37;9.17;;;6.67;;
21334;SDS011;69435;52.670;13.544;2023-10-09T12:17:25;7.37;;;6.73;;
21334;SDS011;69435;52.670;13.544;2023-10-09T12:20:11;7.90;;;7.10;;
21334;SDS011;69435;52.670;13.544;2023-10-09T12:23:15;6.83;;;6.23;;
21334;SDS011;69435;52.670;13.544;2023-10-09T12:26:02;8.77;;;6.63;;
21334;SDS011;69435;52.670;13.544;2023-10-09T12:28:49;8.17;;;6.60;;
21334;SDS011;69435;52.670;13.544;2023-10-09T12:31:35;6.30;;;5.80;;
21334;SDS011;69435;52.670;13.544;2023-10-09T12:34:21;5.63;;;5.23;;
21334;SDS011;69435;52.670;13.544;2023-10-09T12:37:11;4.70;;;4.30;;
21334;SDS011;69435;52.670;13.544;2023-10-09T12:39:57;4.13;;;3.70;;
21334;SDS011;69435;52.670;13.544;2023-10-09T12:42:43;4.13;;;3.73;;
21334;SDS011;69435;52.670;13.544;2023-10-09T12:45:33;3.63;;;3.13;;
21334;SDS011;69435;52.670;13.544;2023-10-09T12:48:19;4.13;;;3.70;;
21334;SDS011;69435;52.670;13.544;2023-10-09T12:51:06;3.70;;;3.47;;
21334;SDS011;69435;52.670;13.544;2023-10-09T12:53:51;4.60;;;3.70;;
21334;SDS011;69435;52.670;13.544;2023-10-09T12:56:43;4.27;;;3.87;;
21334;SDS011;69435;52.670;13.544;2023-10-09T12:59:33;4.33;;;3.93;;
21334;SDS011;69435;52.670;13.544;2023-10-09T13:02:20;3.53;;;3.33;;
21334;SDS011;69435;52.670;13.544;2023-10-09T13:05:15;3.43;;;3.13;;
21334;SDS011;69435;52.670;13.544;2023-10-09T13:08:11;3.70;;;3.40;;
21334;SDS011;69435;52.670;13.544;2023-10-09T13:11:01;3.40;;;3.10;;
21334;SDS011;69435;52.670;13.544;2023-10-09T13:14:02;6.03;;;5.43;;
21334;SDS011;69435;52.670;13.544;2023-10-09T13:16:56;4.30;;;4.00;;
21334;SDS011;69435;52.670;13.544;2023-10-09T13:19:42;4.57;;;4.17;;
21334;SDS011;69435;52.670;13.544;2023-10-09T13:22:29;4.20;;;3.90;;
21334;SDS011;69435;52.670;13.544;2023-10-09T13:25:15;4.00;;;3.70;;
21334;SDS011;69435;52.670;13.544;2023-10-09T13:28:01;4.30;;;3.87;;
21334;SDS011;69435;52.670;13.544;2023-10-09T13:30:48;4.53;;;3.63;;
21334;SDS011;69435;52.670;13.544;2023-10-09T13:33:35;5.93;;;5.33;;
21334;SDS011;69435;52.670;13.544;2023-10-09T13:36:22;4.33;;;3.80;;
21334;SDS011;69435;52.670;13.544;2023-10-09T13:39:17;4.30;;;3.93;;
21334;SDS011;69435;52.670;13.544;2023-10-09T13:42:11;4.10;;;3.73;;
21334;SDS011;69435;52.670;13.544;2023-10-09T13:44:58;4.33;;;3.93;;
21334;SDS011;69435;52.670;13.544;2023-10-09T13:47:49;4.90;;;3.80;;
21334;SDS011;69435;52.670;13.544;2023-10-09T13:50:35;5.43;;;4.00;;
21334;SDS011;69435;52.670;13.544;2023-10-09T13:53:28;4.90;;;4.40;;
21334;SDS011;69435;52.670;13.544;2023-10-09T13:56:15;3.70;;;3.40;;
21334;SDS011;69435;52.670;13.544;2023-10-09T13:59:04;3.50;;;3.23;;
21334;SDS011;69435;52.670;13.544;2023-10-09T14:01:56;5.33;;;3.90;;
21334;SDS011;69435;52.670;13.544;2023-10-09T14:04:42;4.90;;;4.47;;
21334;SDS011;69435;52.670;13.544;2023-10-09T14:07:29;4.63;;;4.23;;
21334;SDS011;69435;52.670;13.544;2023-10-09T14:10:15;3.87;;;3.50;;
21334;SDS011;69435;52.670;13.544;2023-10-09T14:13:09;4.80;;;4.40;;
21334;SDS011;69435;52.670;13.544;2023-10-09T14:15:57;5.00;;;4.60;;
21334;SDS011;69435;52.670;13.544;2023-10-09T14:18:47;4.80;;;4.30;;
21334;SDS011;69435;52.670;13.544;2023-10-09T14:21:33;4.60;;;4.20;;
21334;SDS011;69435;52.670;13.544;2023-10-09T14:24:23;4.87;;;4.47;;
21334;SDS011;69435;52.670;13.544;2023-10-09T14:27:18;5.23;;;4.83;;
21334;SDS011;69435;52.670;13.544;2023-10-09T14:30:04;5.37;;;4.87;;
21334;SDS011;69435;52.670;13.544;2023-10-09T14:32:58;6.53;;;4.90;;
21334;SDS011;69435;52.670;13.544;2023-10-09T14:35:47;8.33;;;7.47;;
21334;SDS011;69435;52.670;13.544;2023-10-09T14:38:34;6.40;;;4.30;;
21334;SDS011;69435;52.670;13.544;2023-10-09T14:41:23;5.50;;;5.10;;
21334;SDS011;69435;52.670;13.544;2023-10-09T14:44:10;5.70;;;4.53;;
21334;SDS011;69435;52.670;13.544;2023-10-09T14:47:01;5.40;;;4.90;;
21334;SDS011;69435;52.670;13.544;2023-10-09T14:49:50;5.83;;;5.43;;
21334;SDS011;69435;52.670;13.544;2023-10-09T14:52:39;10.30;;;9.30;;
21334;SDS011;69435;52.670;13.544;2023-10-09T14:55:25;7.03;;;6.43;;
21334;SDS011;69435;52.670;13.544;2023-10-09T14:58:17;7.57;;;6.33;;
21334;SDS011;69435;52.670;13.544;2023-10-09T15:01:09;5.57;;;5.07;;
21334;SDS011;69435;52.670;13.544;2023-10-09T15:03:58;5.73;;;5.23;;
21334;SDS011;69435;52.670;13.544;2023-10-09T15:06:49;4.73;;;4.43;;
21334;SDS011;69435;52.670;13.544;2023-10-09T15:09:35;5.60;;;5.10;;
21334;SDS011;69435;52.670;13.544;2023-10-09T15:12:21;6.23;;;5.73;;
21334;SDS011;69435;52.670;13.544;2023-10-09T15:15:08;6.00;;;5.50;;
21334;SDS011;69435;52.670;13.544;2023-10-09T15:17:58;5.83;;;5.23;;
21334;SDS011;69435;52.670;13.544;2023-10-09T15:20:44;5.57;;;5.13;;
21334;SDS011;69435;52.670;13.544;2023-10-09T15:23:32;8.33;;;4.67;;
21334;SDS011;69435;52.670;13.544;2023-10-09T15:26:21;6.20;;;5.10;;
21334;SDS011;69435;52.670;13.544;2023-10-09T15:29:09;5.60;;;5.10;;
21334;SDS011;69435;52.670;13.544;2023-10-09T15:31:56;5.87;;;5.40;;
21334;SDS011;69435;52.670;13.544;2023-10-09T15:34:54;7.83;;;5.60;;
21334;SDS011;69435;52.670;13.544;2023-10-09T15:37:42;6.43;;;5.73;;
21334;SDS011;69435;52.670;13.544;2023-10-09T15:40:28;6.13;;;5.60;;
21334;SDS011;69435;52.670;13.544;2023-10-09T15:43:21;6.70;;;6.20;;
21334;SDS011;69435;52.670;13.544;2023-10-09T15:46:11;6.03;;;5.50;;
21334;SDS011;69435;52.670;13.544;2023-10-09T15:49:00;6.03;;;5.53;;
21334;SDS011;69435;52.670;13.544;2023-10-09T15:51:46;5.90;;;5.40;;
21334;SDS011;69435;52.670;13.544;2023-10-09T15:54:32;6.03;;;5.53;;
21334;SDS011;69435;52.670;13.544;2023-10-09T15:57:18;7.43;;;5.83;;
21334;SDS011;69435;52.670;13.544;2023-10-09T16:00:04;8.20;;;5.43;;
21334;SDS011;69435;52.670;13.544;2023-10-09T16:02:59;8.43;;;6.10;;
21334;SDS011;69435;52.670;13.544;2023-10-09T16:05:46;6.60;;;6.00;;
21334;SDS011;69435;52.670;13.544;2023-10-09T16:08:32;6.17;;;5.63;;
21334;SDS011;69435;52.670;13.544;2023-10-09T16:11:18;6.50;;;5.90;;
21334;SDS011;69435;52.670;13.544;2023-10-09T16:14:08;6.73;;;6.13;;
21334;SDS011;69435;52.670;13.544;2023-10-09T16:16:54;6.37;;;5.87;;
21334;SDS011;69435;52.670;13.544;2023-10-09T16:19:40;7.57;;;6.87;;
21334;SDS011;69435;52.670;13.544;2023-10-09T16:22:30;6.80;;;6.10;;
21334;SDS011;69435;52.670;13.544;2023-10-09T16:25:16;6.17;;;5.67;;
21334;SDS011;69435;52.670;13.544;2023-10-09T16:28:05;5.77;;;5.27;;
21334;SDS011;69435;52.670;13.544;2023-10-09T16:30:51;6.13;;;5.63;;
21334;SDS011;69435;52.670;13.544;2023-10-09T16:33:39;5.77;;;5.27;;
21334;SDS011;69435;52.670;13.544;2023-10-09T16:36:25;6.37;;;5.77;;
21334;SDS011;69435;52.670;13.544;2023-10-09T16:39:12;6.03;;;5.33;;
21334;SDS011;69435;52.670;13.544;2023-10-09T16:42:04;6.37;;;5.87;;
21334;SDS011;69435;52.670;13.544;2023-10-09T16:44:50;6.53;;;5.97;;
21334;SDS011;69435;52.670;13.544;2023-10-09T16:47:36;6.13;;;5.53;;
21334;SDS011;69435;52.670;13.544;2023-10-09T16:50:23;8.40;;;6.27;;
21334;SDS011;69435;52.670;13.544;2023-10-09T16:53:13;7.23;;;6.27;;
21334;SDS011;69435;52.670;13.544;2023-10-09T16:56:05;7.47;;;6.77;;
21334;SDS011;69435;52.670;13.544;2023-10-09T16:58:55;6.63;;;6.03;;
21334;SDS011;69435;52.670;13.544;2023-10-09T17:01:41;7.23;;;6.53;;